Time,TemperatureF,DewpointF,PressureIn,WindDirection,WindDirectionDegrees,WindSpeedMPH,WindSpeedGustMPH,Humidity,HourlyPrecipIn,Conditions,Clouds,dailyrainin,SoftwareType,DateUTC
2013-09-19 00:29:00,44.1,43.6,30.10,East,90,0.0,0.0,98,0.00,,---,0.00,VWS V14.00,2013-09-19 04:29:00,
2013-09-19 00:59:00,43.6,42.8,30.11,East,90,0.0,0.0,97,0.00,,---,0.00,VWS V14.00,2013-09-19 04:59:00,
2013-09-19 01:29:00,43.1,42.6,30.11,East,90,0.0,0.0,98,0.00,,---,0.00,VWS V14.00,2013-09-19 05:29:00,
2013-09-19 01:59:00,43.0,42.5,30.11,East,90,0.0,0.0,98,0.00,,---,0.00,VWS V14.00,2013-09-19 05:59:00,
2013-09-19 02:29:00,43.3,43.0,30.11,East,90,0.0,0.0,99,0.00,,---,0.00,VWS V14.00,2013-09-19 06:29:00,
2013-09-19 02:59:00,42.4,41.9,30.09,East,90,0.0,0.0,98,0.00,,---,0.00,VWS V14.00,2013-09-19 06:59:00,
2013-09-19 03:29:00,42.0,41.5,30.09,East,90,0.0,0.0,98,0.00,,---,0.00,VWS V14.00,2013-09-19 07:29:00,
2013-09-19 03:59:00,41.5,41.0,30.09,East,90,0.0,0.0,98,0.00,,---,0.00,VWS V14.00,2013-09-19 07:59:00,
2013-09-19 04:29:00,40.5,40.0,30.09,East,90,0.0,0.0,98,0.00,,---,0.00,VWS V14.00,2013-09-19 08:29:00,
2013-09-19 04:59:00,39.8,39.3,30.09,East,90,0.0,0.0,98,0.00,,---,0.00,VWS V14.00,2013-09-19 08:59:00,
2013-09-19 05:29:00,39.3,38.8,30.09,East,90,0.0,0.0,98,0.00,,---,0.00,VWS V14.00,2013-09-19 09:29:00,
2013-09-19 05:59:00,38.9,38.4,30.09,East,90,0.0,0.0,98,0.00,,---,0.00,VWS V14.00,2013-09-19 09:59:00,
2013-09-19 06:29:00,38.5,38.0,30.10,East,90,0.0,0.0,98,0.00,,---,0.00,VWS V14.00,2013-09-19 10:29:00,
2013-09-19 06:59:00,37.9,37.4,30.11,East,90,0.0,0.0,98,0.00,,---,0.00,VWS V14.00,2013-09-19 10:59:00,
2013-09-19 07:29:00,39.3,39.0,30.11,East,90,0.0,0.0,99,0.00,,---,0.00,VWS V14.00,2013-09-19 11:29:00,
2013-09-19 07:59:00,41.3,41.0,30.11,East,90,0.0,0.0,99,0.00,,---,0.00,VWS V14.00,2013-09-19 11:59:00,
2013-09-19 08:29:00,44.4,44.1,30.11,East,90,0.0,0.0,99,0.00,,---,0.00,VWS V14.00,2013-09-19 12:29:00,
2013-09-19 08:59:00,49.1,49.1,30.10,SW,228,0.0,1.0,100,0.00,,---,0.00,VWS V14.00,2013-09-19 12:59:00,
2013-09-19 09:29:00,54.4,53.8,30.10,SSW,196,0.0,1.0,98,0.00,,---,0.00,VWS V14.00,2013-09-19 13:29:00,
2013-09-19 09:59:00,60.1,53.6,30.10,South,174,0.0,3.0,79,0.00,,---,0.00,VWS V14.00,2013-09-19 13:59:00,
2013-09-19 10:29:00,65.0,54.6,30.09,SE,138,1.0,3.0,69,0.00,,---,0.00,VWS V14.00,2013-09-19 14:29:00,
2013-09-19 10:59:00,68.5,51.7,30.08,SW,227,3.0,3.0,55,0.00,,---,0.00,VWS V14.00,2013-09-19 14:59:00,
2013-09-19 11:29:00,70.8,49.6,30.08,East,82,0.0,3.0,47,0.00,,---,0.00,VWS V14.00,2013-09-19 15:29:00,
2013-09-19 11:59:00,72.2,50.9,30.08,SSE,168,0.0,5.0,47,0.00,,---,0.00,VWS V14.00,2013-09-19 15:59:00,
2013-09-19 12:29:00,72.7,52.5,30.07,NE,41,0.0,3.0,49,0.00,,---,0.00,VWS V14.00,2013-09-19 16:29:00,
2013-09-19 12:59:00,74.1,53.2,30.06,NE,53,1.0,4.0,48,0.00,,---,0.00,VWS V14.00,2013-09-19 16:59:00,
2013-09-19 13:29:00,74.8,54.4,30.06,NE,42,0.0,4.0,49,0.00,,---,0.00,VWS V14.00,2013-09-19 17:29:00,
2013-09-19 13:59:00,74.7,53.7,30.05,SSE,160,1.0,2.0,48,0.00,,---,0.00,VWS V14.00,2013-09-19 17:59:00,
2013-09-19 14:29:00,74.2,52.1,30.04,NE,47,1.0,5.0,46,0.00,,---,0.00,VWS V14.00,2013-09-19 18:29:00,
2013-09-19 14:59:00,72.4,53.3,30.04,ENE,66,1.0,2.0,51,0.00,,---,0.00,VWS V14.00,2013-09-19 18:59:00,
2013-09-19 15:29:00,71.6,55.1,30.03,West,279,1.0,3.0,56,0.00,,---,0.00,VWS V14.00,2013-09-19 19:29:00,
2013-09-19 15:59:00,69.4,54.0,30.03,South,175,0.0,3.0,58,0.00,,---,0.00,VWS V14.00,2013-09-19 19:59:00,
2013-09-19 16:29:00,69.2,56.1,30.02,SSE,152,1.0,3.0,63,0.00,,---,0.00,VWS V14.00,2013-09-19 20:29:00,
2013-09-19 16:59:00,70.0,57.3,30.02,SW,232,1.0,4.0,64,0.00,,---,0.00,VWS V14.00,2013-09-19 20:59:00,
2013-09-19 17:29:00,68.3,57.3,30.02,SE,138,0.0,1.0,68,0.00,,---,0.00,VWS V14.00,2013-09-19 21:29:00,
2013-09-19 17:59:00,65.6,57.8,30.02,ESE,103,0.0,0.0,76,0.00,,---,0.00,VWS V14.00,2013-09-19 21:59:00,
2013-09-19 18:29:00,63.6,57.3,30.03,SSW,209,0.0,2.0,80,0.00,,---,0.00,VWS V14.00,2013-09-19 22:29:00,
2013-09-19 18:59:00,62.0,56.5,30.02,SSW,210,0.0,1.0,82,0.00,,---,0.00,VWS V14.00,2013-09-19 22:59:00,
2013-09-19 19:29:00,60.4,55.9,30.04,SSW,210,0.0,0.0,85,0.00,,---,0.00,VWS V14.00,2013-09-19 23:29:00,
2013-09-19 19:59:00,59.0,55.1,30.04,SSW,210,0.0,0.0,87,0.00,,---,0.00,VWS V14.00,2013-09-19 23:59:00,
2013-09-19 20:29:00,57.3,54.4,30.05,SSW,210,0.0,0.0,90,0.00,,---,0.00,VWS V14.00,2013-09-20 00:29:00,
2013-09-19 20:59:00,56.2,54.2,30.05,SSW,210,0.0,0.0,93,0.00,,---,0.00,VWS V14.00,2013-09-20 00:59:00,
2013-09-19 21:29:00,56.0,54.3,30.04,SSW,210,0.0,0.0,94,0.00,,---,0.00,VWS V14.00,2013-09-20 01:29:00,
2013-09-19 21:59:00,55.9,54.5,30.05,SSW,210,0.0,0.0,95,0.00,,---,0.00,VWS V14.00,2013-09-20 01:59:00,
2013-09-19 22:29:00,56.1,54.4,30.05,SSW,210,0.0,0.0,94,0.00,,---,0.00,VWS V14.00,2013-09-20 02:29:00,
2013-09-19 22:59:00,55.7,54.3,30.04,SSW,210,0.0,0.0,95,0.00,,---,0.00,VWS V14.00,2013-09-20 02:59:00,
2013-09-19 23:29:00,55.9,54.8,30.03,SSW,210,0.0,0.0,96,0.00,,---,0.00,VWS V14.00,2013-09-20 03:29:00,
2013-09-19 23:59:00,55.4,54.3,30.03,SSW,210,0.0,0.0,96,0.00,,---,0.00,VWS V14.00,2013-09-20 03:59:00,